Industrial, Louisiana
Current Conditions -  °F | °C
As of 8:01 AM on Thursday 30 Oct 2014 (Local Time) from KDTN Reporting Station
Haze Haze  
Wind Chill: 44°   Ceiling: Unl
Heat Index: 44°   Visibility: 4mi
Dew Point: 42°   Wind: 0mph
Humidity: 93%   Direction: NA
Pressure: 30.17"   Gusts: NA
Location:  32.5955°N, 93.8642°W
Report Text: KDTN 301301Z 00000KT 4SM BR CLR 07/06 A3017 RMK AO2 T00670056
Loading
Personal Weather Stations






























Interactive Weather Map
Tropical Storm Tracking
New forecast layout! Learn more

10-Day Weather Forecast

Advertisements
Track Severe Weather on mobile